createdAt,value
2019-01-02T00:02:21.094Z,101036.45
2019-01-02T00:04:49.566Z,101039.73
2019-01-02T00:07:18.530Z,101049.86
2019-01-02T00:09:47.001Z,101049.48
2019-01-02T00:12:15.942Z,101059.22
2019-01-02T00:14:44.353Z,101048.64
2019-01-02T00:17:12.840Z,101059.17
2019-01-02T00:19:41.321Z,101062.08
2019-01-02T00:22:09.770Z,101051.17
2019-01-02T00:24:38.227Z,101051.13
2019-01-02T00:27:06.755Z,101061.23
2019-01-02T00:29:35.493Z,101055.34
2019-01-02T00:32:03.923Z,101061.66
2019-01-02T00:34:32.852Z,101063.45
2019-01-02T00:37:01.377Z,101063.48
2019-01-02T00:39:30.202Z,101067.80
2019-01-02T00:41:58.645Z,101061.95
2019-01-02T00:44:27.575Z,101062.09
2019-01-02T00:46:56.013Z,101073.91
2019-01-02T00:49:24.927Z,101072.25
2019-01-02T00:51:53.402Z,101078.58
2019-01-02T00:54:21.812Z,101070.05
2019-01-02T00:56:50.268Z,101075.91
2019-01-02T00:59:19.078Z,101074.97
2019-01-02T01:01:47.581Z,101086.30
2019-01-02T01:04:16.509Z,101082.74
2019-01-02T01:06:44.957Z,101070.09
2019-01-02T01:09:13.676Z,101073.41
2019-01-02T01:11:42.124Z,101082.64
2019-01-02T01:14:10.924Z,101088.49
2019-01-02T01:16:39.394Z,101091.39
2019-01-02T01:19:08.400Z,101100.66
2019-01-02T01:21:36.843Z,101112.56
2019-01-02T01:24:06.147Z,101117.25
2019-01-02T01:26:34.581Z,101113.09
2019-01-02T01:29:03.066Z,101120.73
2019-01-02T01:31:32.218Z,101124.98
2019-01-02T01:34:00.684Z,101133.05
2019-01-02T01:36:29.331Z,101143.13
2019-01-02T01:38:57.761Z,101143.98
2019-01-02T01:41:26.252Z,101143.70
2019-01-02T01:43:54.909Z,101148.38
2019-01-02T01:46:23.317Z,101140.38
2019-01-02T01:48:52.275Z,101147.59
2019-01-02T01:51:20.853Z,101145.81
2019-01-02T01:53:49.465Z,101147.86
2019-01-02T01:56:18.344Z,101149.55
2019-01-02T01:58:46.803Z,101148.66
2019-01-02T02:01:15.187Z,101158.40
2019-01-02T02:03:44.017Z,101154.23
2019-01-02T02:06:12.521Z,101173.12
2019-01-02T02:08:41.240Z,101179.75
2019-01-02T02:11:09.723Z,101185.13
2019-01-02T02:13:38.240Z,101180.48
2019-01-02T02:16:07.144Z,101190.55
2019-01-02T02:18:35.606Z,101193.04
2019-01-02T02:21:04.611Z,101199.34
2019-01-02T02:23:33.164Z,101205.16
2019-01-02T02:26:01.592Z,101207.63
2019-01-02T02:28:30.621Z,101204.77
2019-01-02T02:30:59.172Z,101203.83
2019-01-02T02:33:28.087Z,101214.84
2019-01-02T02:35:57.036Z,101218.05
2019-01-02T02:38:26.025Z,101207.94
2019-01-02T02:40:54.919Z,101221.84
2019-01-02T02:43:23.449Z,101218.89
2019-01-02T02:45:53.216Z,101220.20
2019-01-02T02:48:22.005Z,101223.89
2019-01-02T02:50:50.920Z,101230.64
2019-01-02T02:53:19.995Z,101226.36
2019-01-02T02:55:48.915Z,101234.31
2019-01-02T02:58:17.900Z,101234.73
2019-01-02T03:00:46.658Z,101241.89
2019-01-02T03:03:15.613Z,101237.94
2019-01-02T03:05:44.087Z,101239.56
2019-01-02T03:08:12.571Z,101234.50
2019-01-02T03:10:41.810Z,101241.55
2019-01-02T03:13:10.664Z,101247.83
2019-01-02T03:15:39.722Z,101250.41
2019-01-02T03:18:08.620Z,101257.98
2019-01-02T03:20:37.075Z,101257.58
2019-01-02T03:23:05.575Z,101260.47
2019-01-02T03:25:34.578Z,101266.77
2019-01-02T03:28:03.467Z,101269.73
2019-01-02T03:30:32.126Z,101265.16
2019-01-02T03:33:01.099Z,101277.41
2019-01-02T03:35:29.609Z,101273.52
2019-01-02T03:37:58.088Z,101279.05
2019-01-02T03:40:26.510Z,101276.77
2019-01-02T03:42:55.608Z,101278.09
2019-01-02T03:45:24.121Z,101285.67
2019-01-02T03:47:52.618Z,101284.53
2019-01-02T03:50:21.126Z,101280.67
2019-01-02T03:52:49.607Z,101292.66
2019-01-02T03:55:18.116Z,101295.19
2019-01-02T03:57:46.558Z,101297.25
2019-01-02T04:00:17.812Z,101308.23
2019-01-02T04:02:46.350Z,101306.02
2019-01-02T04:05:17.675Z,101311.03
2019-01-02T04:07:49.309Z,101309.99
2019-01-02T04:10:17.761Z,101308.36
2019-01-02T04:12:46.218Z,101308.78
2019-01-02T04:15:14.711Z,101310.97
2019-01-02T04:17:43.207Z,101311.31
2019-01-02T04:20:11.653Z,101312.47
2019-01-02T04:22:40.115Z,101320.91
2019-01-02T04:25:09.437Z,101320.39
2019-01-02T04:27:37.929Z,101320.76
2019-01-02T04:30:09.485Z,101327.44
2019-01-02T04:32:37.973Z,101332.49
2019-01-02T04:35:07.064Z,101333.76
2019-01-02T04:37:35.548Z,101340.39
2019-01-02T04:40:05.600Z,101334.86
2019-01-02T04:42:34.107Z,101340.02
2019-01-02T04:45:02.609Z,101344.72
2019-01-02T04:47:31.041Z,101343.15
2019-01-02T04:49:59.586Z,101343.88
2019-01-02T04:52:28.098Z,101343.77
2019-01-02T04:54:56.568Z,101348.38
2019-01-02T04:57:25.174Z,101353.33
2019-01-02T04:59:53.674Z,101353.75
2019-01-02T05:02:22.135Z,101350.03
2019-01-02T05:04:50.603Z,101349.29
2019-01-02T05:07:19.079Z,101356.52
2019-01-02T05:09:47.596Z,101362.42
2019-01-02T05:12:16.083Z,101355.68
2019-01-02T05:14:44.591Z,101359.48
2019-01-02T05:17:13.143Z,101365.56
2019-01-02T05:19:41.580Z,101364.58
2019-01-02T05:22:10.001Z,101375.96
2019-01-02T05:24:38.443Z,101373.09
2019-01-02T05:27:06.923Z,101375.31
2019-01-02T05:29:35.348Z,101365.08
2019-01-02T05:32:03.926Z,101377.72
2019-01-02T05:34:32.414Z,101382.70
2019-01-02T05:37:00.897Z,101385.11
2019-01-02T05:39:29.436Z,101383.67
2019-01-02T05:41:57.911Z,101388.73
2019-01-02T05:44:26.387Z,101386.16
2019-01-02T05:46:54.817Z,101394.59
2019-01-02T05:49:23.358Z,101391.62
2019-01-02T05:51:51.844Z,101400.34
2019-01-02T05:54:20.373Z,101409.55
2019-01-02T05:56:48.822Z,101412.48
2019-01-02T05:59:17.257Z,101414.66
2019-01-02T06:01:45.766Z,101422.23
2019-01-02T06:04:14.265Z,101420.45
2019-01-02T06:06:42.697Z,101422.95
2019-01-02T06:09:11.207Z,101420.63
2019-01-02T06:11:39.681Z,101427.30
2019-01-02T06:14:08.171Z,101433.09
2019-01-02T06:16:36.682Z,101443.06
2019-01-02T06:19:05.245Z,101446.50
2019-01-02T06:21:33.674Z,101442.70
2019-01-02T06:24:02.094Z,101449.50
2019-01-02T06:26:30.700Z,101459.61
2019-01-02T06:28:59.137Z,101462.14
2019-01-02T06:31:27.646Z,101466.28
2019-01-02T06:33:56.165Z,101459.85
2019-01-02T06:36:24.617Z,101466.17
2019-01-02T06:38:53.108Z,101460.73
2019-01-02T06:41:21.574Z,101469.05
2019-01-02T06:43:50.059Z,101465.80
2019-01-02T06:46:18.548Z,101469.17
2019-01-02T06:48:47.025Z,101473.27
2019-01-02T06:51:15.548Z,101478.81
2019-01-02T06:53:44.001Z,101483.84
2019-01-02T06:56:12.468Z,101493.48
2019-01-02T06:58:40.988Z,101501.20
2019-01-02T07:01:09.422Z,101499.59
2019-01-02T07:03:37.881Z,101505.91
2019-01-02T07:06:06.369Z,101514.75
2019-01-02T07:08:34.809Z,101524.98
2019-01-02T07:11:03.278Z,101519.81
2019-01-02T07:13:31.772Z,101528.57
2019-01-02T07:16:00.230Z,101530.04
2019-01-02T07:18:28.684Z,101530.75
2019-01-02T07:20:57.128Z,101535.33
2019-01-02T07:23:25.640Z,101537.30
2019-01-02T07:25:54.058Z,101548.59
2019-01-02T07:28:22.546Z,101544.33
2019-01-02T07:30:51.003Z,101549.86
2019-01-02T07:33:22.369Z,101561.28
2019-01-02T07:36:27.305Z,101564.55
2019-01-02T07:39:10.967Z,101567.14
2019-01-02T07:42:10.651Z,101571.84
2019-01-02T07:44:56.705Z,101578.57
2019-01-02T07:47:49.531Z,101578.66
2019-01-02T07:50:23.950Z,101585.25
2019-01-02T07:53:13.694Z,101587.16
2019-01-02T07:56:03.060Z,101593.12
2019-01-02T07:58:54.080Z,101592.89
2019-01-02T08:01:45.227Z,101604.30
2019-01-02T08:04:22.622Z,101612.23
2019-01-02T08:07:02.648Z,101612.03
2019-01-02T08:09:39.739Z,101614.94
2019-01-02T08:12:23.281Z,101620.44
2019-01-02T08:15:20.511Z,101624.52
2019-01-02T08:17:52.047Z,101624.73
2019-01-02T08:20:35.226Z,101634.75
2019-01-02T08:23:09.682Z,101632.91
2019-01-02T08:25:46.884Z,101640.09
2019-01-02T08:28:46.402Z,101644.50
2019-01-02T08:31:43.676Z,101646.34
2019-01-02T08:34:20.858Z,101643.43
2019-01-02T08:37:25.610Z,101652.41
2019-01-02T08:40:05.954Z,101651.27
2019-01-02T08:42:37.479Z,101666.56
2019-01-02T08:45:08.957Z,101677.26
2019-01-02T08:47:46.237Z,101677.16
2019-01-02T08:50:37.286Z,101679.44
2019-01-02T08:53:17.479Z,101681.17
2019-01-02T08:56:08.549Z,101694.45
2019-01-02T08:58:45.971Z,101691.03
2019-01-02T09:01:20.365Z,101685.70
2019-01-02T09:04:16.139Z,101696.59
2019-01-02T09:07:03.014Z,101693.76
2019-01-02T09:09:42.907Z,101707.17
2019-01-02T09:12:17.115Z,101709.06
2019-01-02T09:15:03.539Z,101723.28
2019-01-02T09:17:40.870Z,101719.93
2019-01-02T09:20:17.727Z,101727.83
2019-01-02T09:23:01.008Z,101737.73
2019-01-02T09:25:44.332Z,101740.05
2019-01-02T09:28:24.524Z,101750.00
2019-01-02T09:31:05.195Z,101756.59
2019-01-02T09:33:42.339Z,101762.22
2019-01-02T09:36:28.929Z,101756.91
2019-01-02T09:39:09.606Z,101759.27
2019-01-02T09:41:52.788Z,101771.23
2019-01-02T09:44:27.217Z,101772.52
2019-01-02T09:47:18.338Z,101775.41
2019-01-02T09:49:52.509Z,101777.23
2019-01-02T09:52:29.710Z,101780.86
2019-01-02T09:55:09.946Z,101787.70
2019-01-02T10:01:34.663Z,101788.00
2019-01-02T10:04:09.677Z,101797.28
2019-01-02T10:06:43.962Z,101795.73
2019-01-02T10:09:18.467Z,101806.06
2019-01-02T10:11:55.773Z,101807.91
2019-01-02T10:14:33.112Z,101808.70
2019-01-02T10:17:22.539Z,101807.28
2019-01-02T10:20:21.505Z,101806.41
2019-01-02T10:23:09.358Z,101815.83
2019-01-02T10:25:56.048Z,101820.00
2019-01-02T10:28:48.190Z,101821.81
2019-01-02T10:31:28.770Z,101809.31
2019-01-02T10:34:11.873Z,101826.98
2019-01-02T10:37:06.141Z,101821.62
2019-01-02T10:40:14.080Z,101830.08
2019-01-02T10:42:51.693Z,101824.23
2019-01-02T10:45:44.182Z,101825.34
2019-01-02T10:48:27.410Z,101830.21
2019-01-02T10:50:58.917Z,101829.52
2019-01-02T10:53:45.662Z,101834.92
2019-01-02T10:56:37.619Z,101836.05
2019-01-02T10:59:36.435Z,101842.25
2019-01-02T11:02:28.828Z,101842.44
2019-01-02T11:05:16.565Z,101845.25
2019-01-02T11:07:51.053Z,101848.75
2019-01-02T11:10:31.634Z,101851.40
2019-01-02T11:13:11.677Z,101846.49
2019-01-02T11:15:52.165Z,101848.47
2019-01-02T11:18:32.782Z,101849.58
2019-01-02T11:21:25.070Z,101854.02
2019-01-02T11:24:14.748Z,101854.59
2019-01-02T11:27:07.077Z,101868.53
2019-01-02T11:29:43.762Z,101851.36
2019-01-02T11:32:39.484Z,101850.65
2019-01-02T11:35:19.757Z,101858.39
2019-01-02T11:38:11.963Z,101866.05
2019-01-02T11:41:05.709Z,101860.98
2019-01-02T11:43:59.908Z,101859.63
2019-01-02T11:46:28.399Z,101855.86
2019-01-02T11:48:56.808Z,101864.52
2019-01-02T11:51:25.219Z,101864.87
2019-01-02T11:53:53.770Z,101865.70
2019-01-02T11:56:22.294Z,101864.92
2019-01-02T11:58:50.756Z,101873.94
2019-01-02T12:01:19.267Z,101874.69
2019-01-02T12:03:47.937Z,101875.31
2019-01-02T12:06:16.379Z,101871.07
2019-01-02T12:08:44.887Z,101877.48
2019-01-02T12:11:13.384Z,101871.16
2019-01-02T12:13:41.860Z,101874.27
2019-01-02T12:16:10.303Z,101882.61
2019-01-02T12:18:40.275Z,101888.04
2019-01-02T12:21:08.730Z,101886.05
2019-01-02T12:23:37.145Z,101885.62
2019-01-02T12:26:05.581Z,101881.34
2019-01-02T12:28:34.119Z,101895.95
2019-01-02T12:31:02.536Z,101900.31
2019-01-02T12:33:33.692Z,101898.97
2019-01-02T12:36:02.158Z,101893.34
2019-01-02T12:38:30.629Z,101907.94
2019-01-02T12:40:59.074Z,101905.47
2019-01-02T12:43:27.561Z,101915.25
2019-01-02T12:45:55.991Z,101899.98
2019-01-02T12:48:24.404Z,101921.46
2019-01-02T12:50:52.875Z,101921.73
2019-01-02T12:53:21.318Z,101906.82
2019-01-02T12:55:49.757Z,101922.09
2019-01-02T12:58:18.235Z,101913.09
2019-01-02T13:00:49.776Z,101924.50
2019-01-02T13:03:33.203Z,101922.94
2019-01-02T13:06:24.189Z,101931.05
2019-01-02T13:09:16.559Z,101932.37
2019-01-02T13:11:56.662Z,101931.69
2019-01-02T13:14:46.399Z,101937.38
2019-01-02T13:17:23.386Z,101930.62
2019-01-02T13:20:14.325Z,101940.33
2019-01-02T13:22:48.497Z,101950.34
2019-01-02T13:25:25.617Z,101951.38
2019-01-02T13:27:57.126Z,101945.27
2019-01-02T13:30:31.524Z,101955.03
2019-01-02T13:33:08.819Z,101958.36
2019-01-02T13:35:54.533Z,101951.59
2019-01-02T13:38:28.914Z,101956.30
2019-01-02T13:41:00.401Z,101961.11
2019-01-02T13:43:47.201Z,101961.25
2019-01-02T13:46:21.721Z,101966.88
2019-01-02T13:49:17.188Z,101963.02
2019-01-02T13:51:45.797Z,101964.75
2019-01-02T13:54:14.243Z,101972.29
2019-01-02T13:56:42.723Z,101972.23
2019-01-02T13:59:11.132Z,101979.10
2019-01-02T14:01:40.494Z,101993.54
2019-01-02T14:04:08.992Z,101984.81
2019-01-02T14:06:37.523Z,101989.02
2019-01-02T14:09:07.525Z,101988.13
2019-01-02T14:11:35.964Z,101989.75
2019-01-02T14:14:04.524Z,101988.48
2019-01-02T14:16:32.966Z,101996.56
2019-01-02T14:19:01.451Z,101988.39
2019-01-02T14:21:29.852Z,102000.50
2019-01-02T14:23:58.268Z,102000.55
2019-01-02T14:26:27.222Z,102002.17
2019-01-02T14:28:55.678Z,102011.45
2019-01-02T14:31:24.174Z,102011.16
2019-01-02T14:33:52.640Z,102007.88
2019-01-02T14:36:21.366Z,102013.77
2019-01-02T14:38:49.764Z,102013.28
2019-01-02T14:41:18.240Z,102010.02
2019-01-02T14:43:46.661Z,102015.91
2019-01-02T14:46:15.091Z,102017.59
2019-01-02T14:48:43.557Z,102019.23
2019-01-02T14:51:11.996Z,102027.24
2019-01-02T14:53:40.441Z,102020.81
2019-01-02T14:56:09.675Z,102028.62
2019-01-02T14:58:38.132Z,102044.23
2019-01-02T15:01:06.685Z,102048.03
2019-01-02T15:03:36.196Z,102052.81
2019-01-02T15:06:05.901Z,102055.12
2019-01-02T15:08:35.401Z,102060.05
2019-01-02T15:11:08.272Z,102054.47
2019-01-02T15:13:33.997Z,102064.16
2019-01-02T15:16:02.434Z,102070.31
2019-01-02T15:18:30.877Z,102065.53
2019-01-02T15:20:59.331Z,102074.05
2019-01-02T15:23:28.141Z,102073.64
2019-01-02T15:25:56.602Z,102078.39
2019-01-02T15:28:25.057Z,102080.31
2019-01-02T15:30:53.489Z,102069.77
2019-01-02T15:33:21.927Z,102074.77
2019-01-02T15:35:50.447Z,102080.06
2019-01-02T15:38:18.888Z,102074.02
2019-01-02T15:40:48.170Z,102081.36
2019-01-02T15:43:16.568Z,102095.69
2019-01-02T15:45:45.055Z,102095.69
2019-01-02T15:48:13.524Z,102101.91
2019-01-02T15:50:41.949Z,102106.14
2019-01-02T15:53:10.401Z,102105.90
2019-01-02T15:55:38.852Z,102123.16
2019-01-02T15:58:07.306Z,102118.95
2019-01-02T16:00:35.766Z,102111.44
2019-01-02T16:03:04.298Z,102126.10
2019-01-02T16:05:34.136Z,102129.22
2019-01-02T16:08:02.506Z,102128.56
2019-01-02T16:10:30.915Z,102140.05
2019-01-02T16:12:59.375Z,102147.64
2019-01-02T16:15:27.871Z,102143.33
2019-01-02T16:17:59.222Z,102159.18
2019-01-02T16:20:27.667Z,102156.06
2019-01-02T16:22:56.148Z,102165.99
2019-01-02T16:25:24.580Z,102166.21
2019-01-02T16:27:53.053Z,102168.15
2019-01-02T16:30:21.485Z,102173.80
2019-01-02T16:32:49.931Z,102171.01
2019-01-02T16:35:18.393Z,102177.78
2019-01-02T16:37:46.807Z,102182.05
2019-01-02T16:40:15.243Z,102187.04
2019-01-02T16:42:43.701Z,102186.41
2019-01-02T16:45:12.452Z,102193.98
2019-01-02T16:47:40.913Z,102195.17
2019-01-02T16:50:10.088Z,102196.03
2019-01-02T16:52:38.522Z,102194.32
2019-01-02T16:55:07.047Z,102205.47
2019-01-02T16:57:35.483Z,102208.48
2019-01-02T17:00:05.889Z,102207.47
2019-01-02T17:02:34.357Z,102216.48
2019-01-02T17:05:03.459Z,102218.25
2019-01-02T17:07:31.869Z,102222.86
2019-01-02T17:10:00.283Z,102221.92
2019-01-02T17:12:28.747Z,102226.83
2019-01-02T17:14:57.177Z,102227.01
2019-01-02T17:17:25.625Z,102225.82
2019-01-02T17:19:54.066Z,102231.20
2019-01-02T17:22:22.513Z,102233.69
2019-01-02T17:24:50.961Z,102234.06
2019-01-02T17:27:19.395Z,102231.20
2019-01-02T17:29:47.819Z,102236.87
2019-01-02T17:32:16.256Z,102236.87
2019-01-02T17:34:44.771Z,102234.27
2019-01-02T17:37:13.215Z,102240.98
2019-01-02T17:39:41.718Z,102248.00
2019-01-02T17:42:10.188Z,102248.69
2019-01-02T17:44:38.617Z,102249.47
2019-01-02T17:47:07.108Z,102253.66
2019-01-02T17:49:35.547Z,102245.80
2019-01-02T17:52:04.026Z,102248.20
2019-01-02T17:54:39.702Z,102247.96
2019-01-02T17:57:08.797Z,102249.22
2019-01-02T17:59:37.251Z,102254.80
2019-01-02T18:02:05.752Z,102254.42
2019-01-02T18:04:34.208Z,102263.00
2019-01-02T18:07:02.650Z,102257.20
2019-01-02T18:09:31.081Z,102263.14
2019-01-02T18:11:59.501Z,102264.72
2019-01-02T18:14:27.942Z,102268.98
2019-01-02T18:16:56.386Z,102270.11
2019-01-02T18:19:24.853Z,102274.77
2019-01-02T18:21:53.267Z,102275.80
2019-01-02T18:24:21.732Z,102278.88
2019-01-02T18:26:50.238Z,102281.05
2019-01-02T18:29:18.652Z,102279.70
2019-01-02T18:31:47.091Z,102280.95
2019-01-02T18:34:15.547Z,102285.91
2019-01-02T18:36:44.034Z,102289.23
2019-01-02T18:39:12.563Z,102294.20
2019-01-02T18:41:41.002Z,102294.93
2019-01-02T18:44:09.451Z,102290.97
2019-01-02T18:46:37.888Z,102294.47
2019-01-02T18:49:06.398Z,102303.67
2019-01-02T18:51:34.845Z,102302.05
2019-01-02T18:54:03.326Z,102304.16
2019-01-02T18:56:31.726Z,102300.30
2019-01-02T18:59:00.182Z,102304.56
2019-01-02T19:01:28.616Z,102306.45
2019-01-02T19:03:57.068Z,102310.31
2019-01-02T19:06:25.522Z,102307.89
2019-01-02T19:08:53.996Z,102307.97
2019-01-02T19:11:22.475Z,102317.80
2019-01-02T19:13:50.939Z,102319.62
2019-01-02T19:16:21.698Z,102318.19
2019-01-02T19:18:49.560Z,102320.30
2019-01-02T19:21:18.032Z,102320.93
2019-01-02T19:23:46.451Z,102325.27
2019-01-02T19:26:14.908Z,102331.48
2019-01-02T19:28:43.337Z,102329.26
2019-01-02T19:31:11.747Z,102330.45
2019-01-02T19:33:40.218Z,102330.20
2019-01-02T19:36:08.636Z,102329.94
2019-01-02T19:38:37.062Z,102338.08
2019-01-02T19:41:06.504Z,102336.17
2019-01-02T19:43:34.919Z,102334.73
2019-01-02T19:46:03.364Z,102331.27
2019-01-02T19:48:31.798Z,102330.75
2019-01-02T19:51:00.240Z,102332.13
2019-01-02T19:53:28.705Z,102334.50
2019-01-02T19:55:57.140Z,102331.03
2019-01-02T19:58:25.566Z,102339.69
2019-01-02T20:00:54.031Z,102333.39
2019-01-02T20:03:22.443Z,102337.84
2019-01-02T20:05:50.883Z,102336.44
2019-01-02T20:08:19.350Z,102339.91
2019-01-02T20:10:47.769Z,102342.42
2019-01-02T20:13:16.201Z,102341.78
2019-01-02T20:15:44.631Z,102342.58
2019-01-02T20:18:13.087Z,102343.55
2019-01-02T20:20:41.563Z,102344.45
2019-01-02T20:23:10.032Z,102343.70
2019-01-02T20:25:38.487Z,102338.02
2019-01-02T20:28:06.936Z,102342.66
2019-01-02T20:30:35.470Z,102347.33
2019-01-02T20:33:03.992Z,102344.22
2019-01-02T20:35:32.408Z,102340.50
2019-01-02T20:38:00.858Z,102342.95
2019-01-02T20:40:29.296Z,102343.02
2019-01-02T20:42:57.840Z,102338.84
2019-01-02T20:45:26.428Z,102338.84
2019-01-02T20:47:54.767Z,102338.48
2019-01-02T20:50:23.255Z,102340.99
2019-01-02T20:52:51.682Z,102341.05
2019-01-02T20:55:20.171Z,102337.52
2019-01-02T20:57:48.713Z,102340.25
2019-01-02T21:00:17.141Z,102329.22
2019-01-02T21:02:45.566Z,102338.64
2019-01-02T21:05:14.110Z,102330.39
2019-01-02T21:07:42.525Z,102337.38
2019-01-02T21:10:10.950Z,102340.50
2019-01-02T21:12:39.717Z,102332.28
2019-01-02T21:15:08.690Z,102340.70
2019-01-02T21:17:37.136Z,102336.92
2019-01-02T21:20:07.707Z,102335.47
2019-01-02T21:22:36.194Z,102334.31
2019-01-02T21:25:07.403Z,102333.75
2019-01-02T21:27:35.910Z,102328.83
2019-01-02T21:30:07.861Z,102334.27
2019-01-02T21:32:36.270Z,102337.22
2019-01-02T21:35:05.179Z,102341.55
2019-01-02T21:37:33.635Z,102342.36
2019-01-02T21:40:02.046Z,102341.16
2019-01-02T21:42:30.917Z,102344.08
2019-01-02T21:44:59.488Z,102346.13
2019-01-02T21:47:27.902Z,102345.64
2019-01-02T21:49:56.439Z,102344.77
2019-01-02T21:52:24.851Z,102346.64
2019-01-02T21:54:53.289Z,102347.33
2019-01-02T21:57:21.700Z,102354.39
2019-01-02T21:59:50.260Z,102354.79
2019-01-02T22:02:18.707Z,102344.86
2019-01-02T22:04:47.134Z,102348.40
2019-01-02T22:07:15.591Z,102348.54
2019-01-02T22:09:44.117Z,102337.22
2019-01-02T22:12:12.532Z,102339.08
2019-01-02T22:14:41.022Z,102339.47
2019-01-02T22:17:09.439Z,102338.91
2019-01-02T22:19:38.826Z,102338.72
2019-01-02T22:22:21.106Z,102339.67
2019-01-02T22:24:49.573Z,102335.73
2019-01-02T22:27:18.011Z,102337.86
2019-01-02T22:29:46.490Z,102338.25
2019-01-02T22:32:14.950Z,102333.82
2019-01-02T22:34:43.367Z,102338.85
2019-01-02T22:37:11.777Z,102336.04
2019-01-02T22:39:40.201Z,102341.97
2019-01-02T22:42:09.344Z,102335.58
2019-01-02T22:44:37.836Z,102330.64
2019-01-02T22:47:06.260Z,102333.56
2019-01-02T22:49:34.753Z,102330.12
2019-01-02T22:52:03.187Z,102333.49
2019-01-02T22:54:31.614Z,102331.67
2019-01-02T22:57:00.049Z,102330.48
2019-01-02T22:59:28.453Z,102329.27
2019-01-02T23:02:00.349Z,102329.16
2019-01-02T23:04:30.143Z,102329.27
2019-01-02T23:07:12.039Z,102325.19
2019-01-02T23:09:45.090Z,102327.30
2019-01-02T23:12:21.144Z,102330.52
2019-01-02T23:14:53.994Z,102328.40
2019-01-02T23:17:24.037Z,102341.93
2019-01-02T23:20:12.321Z,102336.67
2019-01-02T23:22:51.276Z,102342.53
2019-01-02T23:25:24.731Z,102336.94
2019-01-02T23:28:10.880Z,102343.98
2019-01-02T23:30:56.920Z,102349.51
2019-01-02T23:33:29.703Z,102352.81
2019-01-02T23:35:59.813Z,102354.06
2019-01-02T23:38:32.966Z,102357.17
2019-01-02T23:41:12.062Z,102357.47
2019-01-02T23:43:58.626Z,102367.52
2019-01-02T23:46:44.793Z,102368.42
2019-01-02T23:49:32.891Z,102359.91
2019-01-02T23:52:05.851Z,102372.11
2019-01-02T23:54:50.595Z,102363.11
2019-01-02T23:57:20.675Z,102373.58
